Terminal Aerodrome Forecast
Issued by NWS

Home | Current Version | Previous Version | Text Only | Print | Product List | Glossary On
Versions: 1 2 3 4 5 6 7 8 9 10 11 12 13 14 15 16 17 18
000
FTUS43 KICT 071100
TAFHUT
TAF
KHUT 071122Z 0712/0812 20006KT P6SM SCT250
     FM071700 20015G22KT P6SM SKC
     FM080400 22007KT P6SM SCT100 BKN250
     FM080900 36008KT P6SM VCTS BKN090CB=

USA.gov is the U.S. government's official web portal to all federal, state and local government web resources and services.